Darlington, Idaho
Current Conditions -  °F | °C
As of 12:53 AM on Sunday 26 Oct 2014 (Local Time) from KIDA Reporting Station
Light Rain Light Rain  
Wind Chill: 55°   Ceiling: 5500
Heat Index: 55°   Visibility: 10mi
Dew Point: 37°   Wind: 12mph
Humidity: 51%   Direction: 230°SW
Pressure: 29.9"   Gusts: 22mph
Location:  43.8649°N, 113.08°W
Report Text: KIDA 260653Z AUTO 23010G19KT 10SM -RA BKN055 OVC070 13/03 A2990 RMK AO2 PK WND 22029/0632 WSHFT 0613 RAB23 SLP088 P0000 T01280028 402440000
Loading
Personal Weather Stations






























Interactive Weather Map
Tropical Storm Tracking
New forecast layout! Learn more

10-Day Weather Forecast

Advertisements
Track Severe Weather on mobile